createdAt,value
2023-05-13T00:08:06.877Z,0.00
2023-05-13T00:18:07.428Z,0.00
2023-05-13T00:28:07.988Z,0.00
2023-05-13T00:38:08.546Z,0.00
2023-05-13T00:48:09.128Z,0.00
2023-05-13T00:58:09.653Z,0.00
2023-05-13T01:08:10.221Z,0.00
2023-05-13T01:18:10.844Z,0.00
2023-05-13T01:28:11.498Z,0.00
2023-05-13T01:38:11.992Z,0.00
2023-05-13T01:48:12.576Z,0.00
2023-05-13T01:58:13.120Z,0.00
2023-05-13T02:08:13.678Z,0.00
2023-05-13T02:18:14.290Z,0.00
2023-05-13T02:28:14.839Z,0.00
2023-05-13T02:38:15.378Z,0.00
2023-05-13T02:48:15.931Z,6.00
2023-05-13T02:58:16.408Z,3.00
2023-05-13T03:08:16.926Z,9.00
2023-05-13T03:18:17.560Z,19.00
2023-05-13T03:28:18.030Z,83.00
2023-05-13T03:38:18.530Z,174.00
2023-05-13T03:48:19.027Z,251.00
2023-05-13T03:58:19.504Z,476.00
2023-05-13T04:08:20.027Z,823.00
2023-05-13T04:18:20.506Z,806.00
2023-05-13T04:28:21.016Z,1196.00
2023-05-13T04:38:28.502Z,1159.00
2023-05-13T04:48:22.024Z,501.00
2023-05-13T04:58:22.494Z,1474.00
2023-05-13T05:08:23.016Z,3125.00
2023-05-13T05:18:23.596Z,3313.00
2023-05-13T05:28:24.095Z,3036.00
2023-05-13T05:38:24.571Z,3885.00
2023-05-13T05:48:25.164Z,3579.00
2023-05-13T05:58:25.626Z,2306.00
2023-05-13T06:08:26.148Z,2121.00
2023-05-13T06:18:26.903Z,2035.00
2023-05-13T06:28:27.431Z,2393.00
2023-05-13T06:38:27.920Z,2244.00
2023-05-13T06:48:28.440Z,2274.00
2023-05-13T06:58:28.948Z,2068.00
2023-05-13T07:08:29.477Z,2440.00
2023-05-13T07:18:29.997Z,2526.00
2023-05-13T07:28:30.589Z,2493.00
2023-05-13T07:38:31.088Z,2753.00
2023-05-13T07:48:31.596Z,2565.00
2023-05-13T07:58:32.109Z,3215.00
2023-05-13T08:08:32.627Z,3415.00
2023-05-13T08:18:33.224Z,3758.00
2023-05-13T08:28:33.708Z,3660.00
2023-05-13T08:38:34.179Z,3830.00
2023-05-13T08:48:34.715Z,4093.00
2023-05-13T08:58:35.189Z,4537.00
2023-05-13T09:08:35.727Z,4498.00
2023-05-13T09:18:36.448Z,4488.00
2023-05-13T09:28:36.996Z,4804.00
2023-05-13T09:38:37.568Z,5022.00
2023-05-13T09:48:38.162Z,5259.00
2023-05-13T09:58:38.619Z,4953.00
2023-05-13T10:08:39.136Z,5933.00
2023-05-13T10:18:39.636Z,5654.00
2023-05-13T10:28:40.137Z,6279.00
2023-05-13T10:38:40.612Z,6031.00
2023-05-13T10:48:41.193Z,1023.00
2023-05-13T10:58:41.726Z,6340.00
2023-05-13T11:08:42.296Z,5641.00
2023-05-13T11:18:42.816Z,6502.00
2023-05-13T11:28:43.320Z,6166.00
2023-05-13T11:38:43.989Z,6843.00
2023-05-13T11:48:44.529Z,6392.00
2023-05-13T11:58:44.993Z,6590.00
2023-05-13T12:08:45.603Z,6538.00
2023-05-13T12:18:46.096Z,5046.00
2023-05-13T12:28:46.583Z,7697.00
2023-05-13T12:38:47.053Z,7013.00
2023-05-13T12:48:47.565Z,7174.00
2023-05-13T12:58:48.082Z,6887.00
2023-05-13T13:08:48.604Z,5397.00
2023-05-13T13:18:49.128Z,2274.00
2023-05-13T13:28:49.645Z,857.00
2023-05-13T13:38:50.147Z,5304.00
2023-05-13T13:48:50.708Z,6177.00
2023-05-13T13:58:51.252Z,5595.00
2023-05-13T14:08:51.750Z,5519.00
2023-05-13T14:18:52.284Z,5755.00
2023-05-13T14:28:52.864Z,4007.00
2023-05-13T14:38:53.351Z,6184.00
2023-05-13T14:48:53.965Z,4522.00
2023-05-13T14:58:54.412Z,4050.00
2023-05-13T15:09:01.958Z,3760.00
2023-05-13T15:18:55.449Z,4136.00
2023-05-13T15:28:55.974Z,2820.00
2023-05-13T15:38:56.530Z,4099.00
2023-05-13T15:48:57.053Z,3044.00
2023-05-13T15:58:57.573Z,2803.00
2023-05-13T16:08:58.108Z,2343.00
2023-05-13T16:18:58.694Z,2316.00
2023-05-13T16:28:59.194Z,1224.00
2023-05-13T16:38:59.734Z,809.00
2023-05-13T16:49:00.531Z,2592.00
2023-05-13T16:59:01.112Z,2350.00
2023-05-13T17:09:01.644Z,2028.00
2023-05-13T17:19:02.152Z,1663.00
2023-05-13T17:29:02.671Z,2102.00
2023-05-13T17:39:03.217Z,1636.00
2023-05-13T17:49:03.789Z,1349.00
2023-05-13T17:59:11.304Z,1091.00
2023-05-13T18:09:12.821Z,892.00
2023-05-13T18:19:05.331Z,616.00
2023-05-13T18:29:05.945Z,410.00
2023-05-13T18:39:06.479Z,286.00
2023-05-13T18:59:55.721Z,47.00
2023-05-13T19:09:56.216Z,39.00
2023-05-13T19:19:56.743Z,10.00
2023-05-13T19:29:57.308Z,3.00
2023-05-13T19:39:57.814Z,1.00
2023-05-13T19:49:58.367Z,0.00
2023-05-13T19:59:58.947Z,0.00
2023-05-13T20:09:59.539Z,0.00
2023-05-13T20:20:00.238Z,0.00
2023-05-13T20:30:00.887Z,0.00
2023-05-13T20:40:01.366Z,1.00
2023-05-13T20:50:01.949Z,0.00
2023-05-13T21:00:02.521Z,0.00
2023-05-13T21:10:03.109Z,0.00
2023-05-13T21:20:03.652Z,0.00
2023-05-13T21:30:04.186Z,0.00
2023-05-13T21:40:04.743Z,0.00
2023-05-13T21:50:05.319Z,0.00
2023-05-13T22:00:05.916Z,0.00
2023-05-13T22:10:06.500Z,0.00
2023-05-13T22:20:07.097Z,0.00
2023-05-13T22:30:07.647Z,0.00
2023-05-13T22:40:08.271Z,0.00
2023-05-13T22:50:08.844Z,0.00
2023-05-13T23:00:09.373Z,0.00
2023-05-13T23:10:09.927Z,0.00
2023-05-13T23:20:10.518Z,0.00
2023-05-13T23:30:11.421Z,0.00
2023-05-13T23:40:11.959Z,0.00
2023-05-13T23:50:12.495Z,0.00
